createdAt,value
2022-10-28T16:35:03.915Z,72.81
2022-10-28T16:36:04.900Z,73.11
2022-10-28T16:37:04.910Z,72.91
2022-10-28T16:38:04.915Z,73.11
2022-10-28T16:39:04.856Z,73.31
2022-10-28T16:40:04.858Z,73.75
2022-10-28T16:41:04.822Z,75.15
2022-10-28T16:42:08.665Z,75.76
2022-10-28T16:43:06.122Z,76.36
2022-10-28T16:45:08.865Z,76.76
2022-10-28T16:46:04.770Z,77.91
2022-10-28T16:47:04.774Z,79.11
2022-10-28T16:48:04.853Z,80.02
2022-10-28T16:49:04.738Z,80.83
2022-10-28T16:50:04.769Z,80.83
2022-10-28T16:51:04.721Z,81.13
2022-10-28T16:52:04.713Z,81.93
2022-10-28T16:53:05.054Z,82.14
2022-10-28T16:54:04.730Z,82.28
2022-10-28T16:55:04.702Z,81.27
2022-10-28T16:56:06.564Z,82.18
2022-10-28T16:57:04.662Z,81.27
2022-10-28T16:58:04.644Z,80.97
2022-10-28T16:59:04.673Z,80.87
2022-10-28T17:00:04.635Z,79.46
2022-10-28T17:01:10.748Z,79.56
2022-10-28T17:02:04.764Z,79.86
2022-10-28T17:03:04.603Z,78.79
2022-10-28T17:04:04.622Z,78.28
2022-10-28T17:05:06.166Z,76.87
2022-10-28T17:06:04.559Z,76.77
2022-10-28T17:07:05.646Z,76.77
2022-10-28T17:08:07.386Z,77.28
2022-10-28T17:09:04.569Z,78.08
2022-10-28T17:10:04.651Z,75.96
2022-10-28T17:11:04.519Z,75.67
2022-10-28T17:12:04.499Z,78.08
2022-10-28T17:13:04.507Z,76.67
2022-10-28T17:14:04.510Z,75.87
2022-10-28T17:15:04.479Z,75.76
2022-10-28T17:16:04.453Z,75.76
2022-10-28T17:17:04.477Z,75.53
2022-10-28T17:18:04.430Z,75.23
2022-10-28T17:19:13.246Z,75.93
2022-10-28T17:20:04.421Z,77.08
2022-10-28T17:21:04.403Z,76.97
2022-10-28T17:22:09.080Z,77.17
2022-10-28T17:23:04.387Z,78.08
